Time;durP1;ratioP1;P1;durP2;ratioP2;P2;SDS_P1;SDS_P2;PMS_P1;PMS_P2;Temp;Humidity;BMP_temperature;BMP_pressure;BME280_temperature;BME280_humidity;BME280_pressure;Samples;Min_cycle;Max_cycle;Signal;HPM_P1;HPM_P2
2023/10/22 00:36:44;;;;;;;4.93;3.73;;;;;;;11.15;82.98;95368.56;4985233;28;20602;-71
2023/10/22 00:39:10;;;;;;;6.97;3.67;;;;;;;11.05;83.03;95370.91;4987471;28;20568;-72
2023/10/22 00:41:35;;;;;;;3.90;3.47;;;;;;;11.16;82.79;95372.88;4983149;28;20436;-71
2023/10/22 00:44:01;;;;;;;3.50;3.03;;;;;;;10.93;83.70;95367.28;4983695;28;20212;-71
2023/10/22 00:46:26;;;;;;;5.80;3.70;;;;;;;11.08;82.92;95360.25;4987969;28;20216;-71
2023/10/22 00:48:53;;;;;;;4.40;4.00;;;;;;;11.25;82.29;95361.81;4980147;28;20181;-70
2023/10/22 00:51:19;;;;;;;4.20;3.70;;;;;;;11.39;81.90;95360.94;4952029;28;20189;-69
2023/10/22 00:53:47;;;;;;;4.80;3.33;;;;;;;11.27;82.02;95359.06;4988009;28;20439;-70
2023/10/22 00:56:13;;;;;;;4.57;4.17;;;;;;;11.29;81.97;95370.31;4984725;28;20451;-69
2023/10/22 00:58:39;;;;;;;3.80;3.40;;;;;;;11.21;81.95;95360.31;4987432;28;20432;-74
2023/10/22 01:01:09;;;;;;;6.23;4.30;;;;;;;11.37;81.58;95363.66;4988245;28;20234;-69
2023/10/22 01:03:36;;;;;;;9.67;4.40;;;;;;;11.36;81.41;95367.22;4986974;28;20435;-73
2023/10/22 01:06:04;;;;;;;4.10;3.70;;;;;;;11.52;80.94;95364.44;4983052;28;20467;-69
2023/10/22 01:08:30;;;;;;;3.93;3.60;;;;;;;11.37;80.85;95365.44;4980106;28;20483;-72
2023/10/22 01:11:07;;;;;;;5.17;3.73;;;;;;;11.50;80.79;95373.38;4986842;28;20506;-69
2023/10/22 01:13:33;;;;;;;7.80;4.80;;;;;;;11.50;80.65;95376.00;4982954;28;20508;-70
2023/10/22 01:15:58;;;;;;;5.23;4.23;;;;;;;11.40;80.80;95381.00;4985768;28;20536;-69
2023/10/22 01:18:24;;;;;;;5.60;4.50;;;;;;;11.36;80.29;95396.13;4986741;28;20681;-71
2023/10/22 01:20:49;;;;;;;16.30;5.20;;;;;;;11.26;80.75;95387.13;4985738;28;20181;-71
2023/10/22 01:23:15;;;;;;;6.63;4.47;;;;;;;11.08;81.20;95386.50;4988024;28;20185;-70
2023/10/22 01:25:40;;;;;;;4.63;4.20;;;;;;;11.16;80.86;95394.72;4979306;28;20651;-70
2023/10/22 01:28:06;;;;;;;4.80;4.03;;;;;;;10.87;81.67;95387.81;4984957;28;20280;-70
2023/10/22 01:30:31;;;;;;;7.67;5.30;;;;;;;10.95;81.71;95398.69;4983926;28;20180;-70
2023/10/22 01:32:57;;;;;;;4.53;4.13;;;;;;;10.96;81.86;95393.34;4985562;28;20632;-69
2023/10/22 01:35:22;;;;;;;7.40;4.60;;;;;;;11.01;82.28;95390.44;4985142;28;20201;-69
2023/10/22 01:37:47;;;;;;;3.70;3.40;;;;;;;10.79;81.80;95407.50;4987404;28;20185;-69
2023/10/22 01:40:13;;;;;;;7.33;4.67;;;;;;;11.03;81.61;95401.66;4987439;28;20230;-71
2023/10/22 01:42:39;;;;;;;3.73;3.43;;;;;;;11.10;81.25;95400.38;4982877;28;20185;-70
2023/10/22 01:45:06;;;;;;;5.43;3.53;;;;;;;11.16;81.08;95401.78;4981382;28;20205;-72
2023/10/22 01:47:31;;;;;;;10.73;4.83;;;;;;;11.19;80.42;95398.94;4962347;28;20189;-72
2023/10/22 01:49:57;;;;;;;5.33;3.77;;;;;;;11.09;80.50;95387.34;4987360;28;20822;-70
2023/10/22 01:52:23;;;;;;;3.70;3.40;;;;;;;11.01;80.55;95395.69;4987044;28;20184;-69
2023/10/22 01:54:49;;;;;;;10.33;3.30;;;;;;;10.79;81.92;95390.91;4980017;28;20882;-70
2023/10/22 01:57:16;;;;;;;4.47;4.07;;;;;;;10.74;81.55;95393.78;4982780;28;20212;-70
2023/10/22 01:59:42;;;;;;;4.53;3.60;;;;;;;10.68;82.02;95398.59;4986692;28;20439;-68
2023/10/22 02:02:07;;;;;;;3.87;3.50;;;;;;;10.33;83.89;95406.78;4985533;28;20447;-69
2023/10/22 02:04:33;;;;;;;5.03;3.53;;;;;;;10.57;83.07;95402.69;4984602;28;20255;-69
2023/10/22 02:06:58;;;;;;;6.93;4.40;;;;;;;10.67;82.26;95407.38;4983244;28;20229;-68
2023/10/22 02:09:24;;;;;;;4.43;4.03;;;;;;;10.73;81.40;95413.13;4979486;28;20782;-72
2023/10/22 02:11:50;;;;;;;13.40;3.97;;;;;;;10.92;80.70;95414.63;4985394;28;20192;-71
2023/10/22 02:14:16;;;;;;;7.60;4.43;;;;;;;10.92;81.42;95418.09;4981660;28;20272;-69
2023/10/22 02:16:41;;;;;;;8.33;5.10;;;;;;;10.97;80.56;95425.69;4977067;28;21054;-70
2023/10/22 02:19:07;;;;;;;6.93;4.23;;;;;;;10.97;80.03;95423.06;4986009;28;20265;-69
2023/10/22 02:21:32;;;;;;;5.53;4.20;;;;;;;10.64;81.26;95426.78;4985948;28;20177;-70
2023/10/22 02:23:58;;;;;;;4.53;4.13;;;;;;;10.74;81.71;95427.91;4977674;28;20184;-70
2023/10/22 02:26:24;;;;;;;4.97;3.90;;;;;;;10.92;80.97;95435.63;4985912;28;20200;-71
2023/10/22 02:28:50;;;;;;;4.90;4.50;;;;;;;11.06;79.83;95426.91;4986150;28;20637;-71
2023/10/22 02:31:15;;;;;;;9.40;4.93;;;;;;;10.98;80.99;95428.22;4985335;28;20432;-70
2023/10/22 02:33:41;;;;;;;5.40;4.80;;;;;;;11.00;80.45;95426.31;4982446;28;20169;-72
2023/10/22 02:36:06;;;;;;;4.10;3.80;;;;;;;11.05;80.02;95422.59;4985515;28;20193;-68
2023/10/22 02:38:35;;;;;;;4.63;4.10;;;;;;;10.95;79.83;95411.81;4981588;28;20185;-70
2023/10/22 02:41:00;;;;;;;5.40;4.50;;;;;;;10.92;80.27;95412.84;4993539;28;20191;-71
2023/10/22 02:43:25;;;;;;;5.13;4.73;;;;;;;11.00;79.98;95409.75;4983577;28;20432;-71
2023/10/22 02:45:52;;;;;;;5.13;4.63;;;;;;;10.90;80.36;95422.59;4984846;28;20219;-71
2023/10/22 02:48:17;;;;;;;6.27;4.87;;;;;;;11.00;80.53;95420.25;4991555;28;20242;-72
2023/10/22 02:50:43;;;;;;;6.40;4.63;;;;;;;10.93;80.23;95417.13;4990368;28;20440;-74
2023/10/22 02:53:09;;;;;;;7.03;4.17;;;;;;;11.02;79.87;95407.88;4985449;28;20177;-70
2023/10/22 02:55:34;;;;;;;5.07;4.57;;;;;;;11.01;79.40;95414.06;4984566;28;20237;-71
2023/10/22 02:58:00;;;;;;;5.00;4.60;;;;;;;11.00;79.47;95420.25;4980312;28;20180;-70
2023/10/22 03:00:25;;;;;;;4.80;4.40;;;;;;;10.99;79.88;95429.06;4979033;28;20227;-70
2023/10/22 03:02:50;;;;;;;4.80;4.20;;;;;;;10.86;79.89;95426.31;4984862;28;20264;-70
2023/10/22 03:05:16;;;;;;;4.43;4.03;;;;;;;10.93;79.89;95430.28;4983345;28;20208;-69
2023/10/22 03:07:41;;;;;;;5.47;4.80;;;;;;;11.02;78.79;95423.63;4986285;28;20188;-70
2023/10/22 03:10:09;;;;;;;5.00;4.47;;;;;;;10.91;79.32;95426.06;4978401;28;20640;-69
2023/10/22 03:12:35;;;;;;;7.53;4.70;;;;;;;10.87;79.49;95437.69;4984600;28;20188;-72
2023/10/22 03:15:00;;;;;;;4.83;4.20;;;;;;;10.70;80.52;95439.56;4984460;28;20462;-69
2023/10/22 03:17:25;;;;;;;5.50;5.00;;;;;;;10.72;80.23;95437.66;4982671;28;20189;-73
2023/10/22 03:19:51;;;;;;;6.43;5.77;;;;;;;10.70;79.71;95444.78;4985863;28;20580;-69
2023/10/22 03:22:18;;;;;;;7.10;5.30;;;;;;;10.76;79.51;95444.41;4981982;28;20243;-70
2023/10/22 03:24:48;;;;;;;5.97;5.37;;;;;;;10.74;80.17;95443.66;4983293;28;20198;-70
2023/10/22 03:27:14;;;;;;;5.20;4.67;;;;;;;10.72;79.56;95453.41;4985302;28;20471;-70
2023/10/22 03:29:39;;;;;;;5.80;4.70;;;;;;;10.75;79.70;95457.66;4988870;28;21181;-72
2023/10/22 03:32:05;;;;;;;5.63;5.17;;;;;;;10.73;79.36;95449.84;4988226;28;20222;-71
2023/10/22 03:34:30;;;;;;;5.13;4.53;;;;;;;10.76;79.47;95452.28;4989285;28;20300;-69
2023/10/22 03:36:56;;;;;;;4.50;4.17;;;;;;;10.64;78.96;95449.56;4983809;28;20255;-73
2023/10/22 03:39:21;;;;;;;5.83;5.03;;;;;;;10.59;79.13;95452.44;4988698;28;20506;-72
2023/10/22 03:41:47;;;;;;;4.83;4.13;;;;;;;10.71;79.04;95451.72;4980171;28;20332;-70
2023/10/22 03:44:12;;;;;;;4.90;4.43;;;;;;;10.67;78.65;95449.38;4988946;28;20250;-72
2023/10/22 03:46:38;;;;;;;5.80;4.03;;;;;;;10.60;79.40;95446.25;4982001;28;20201;-69
2023/10/22 03:49:03;;;;;;;3.50;3.20;;;;;;;10.48;79.73;95454.84;4987164;28;20185;-71
2023/10/22 03:51:29;;;;;;;6.47;4.43;;;;;;;10.53;79.20;95473.78;4987167;28;20189;-71
2023/10/22 03:53:56;;;;;;;5.50;4.07;;;;;;;10.56;78.73;95479.72;4985111;28;20189;-70
2023/10/22 03:56:22;;;;;;;4.27;3.87;;;;;;;10.67;78.84;95491.34;4972084;28;20176;-70
2023/10/22 03:58:47;;;;;;;6.20;4.13;;;;;;;10.59;79.19;95478.69;4987149;28;21126;-69
2023/10/22 04:01:12;;;;;;;6.40;4.77;;;;;;;10.57;79.34;95496.28;4989307;28;20208;-72
2023/10/22 04:03:38;;;;;;;6.50;4.27;;;;;;;10.58;79.38;95484.84;4988729;28;20258;-72
2023/10/22 04:06:04;;;;;;;5.47;4.97;;;;;;;10.58;79.11;95490.09;4984129;28;20236;-71
2023/10/22 04:08:29;;;;;;;5.70;5.20;;;;;;;10.60;78.94;95490.84;4988403;28;20235;-70
2023/10/22 04:10:54;;;;;;;5.57;5.07;;;;;;;10.54;79.36;95491.25;4985019;28;20192;-73
2023/10/22 04:13:20;;;;;;;8.40;4.83;;;;;;;10.51;78.86;95499.25;4996309;28;20172;-70
2023/10/22 04:15:46;;;;;;;5.87;5.37;;;;;;;10.47;78.29;95489.91;4990013;28;20196;-72
2023/10/22 04:18:16;;;;;;;6.60;6.00;;;;;;;10.48;78.32;95491.59;4995973;28;20183;-72
2023/10/22 04:20:42;;;;;;;6.10;5.50;;;;;;;10.38;78.89;95491.28;4990360;28;20264;-70
2023/10/22 04:23:10;;;;;;;6.23;5.63;;;;;;;10.37;79.04;95497.47;4990433;28;20495;-70
2023/10/22 04:25:39;;;;;;;7.20;6.13;;;;;;;10.34;78.48;95503.69;4989605;28;20361;-67
2023/10/22 04:28:08;;;;;;;9.07;5.60;;;;;;;10.31;78.53;95509.13;4990201;28;20482;-68
2023/10/22 04:30:38;;;;;;;6.73;5.50;;;;;;;10.42;78.37;95505.91;4994090;28;20450;-72
2023/10/22 04:33:04;;;;;;;6.30;4.93;;;;;;;10.35;78.50;95515.91;4990421;28;20507;-71
2023/10/22 04:35:31;;;;;;;5.43;4.93;;;;;;;10.33;78.57;95515.13;4989751;28;20516;-73
2023/10/22 04:37:56;;;;;;;5.90;5.40;;;;;;;10.25;78.89;95512.09;4990191;28;20419;-69
2023/10/22 04:40:23;;;;;;;5.53;4.37;;;;;;;10.28;78.29;95513.69;4990163;28;20413;-70
2023/10/22 04:42:49;;;;;;;6.57;5.17;;;;;;;10.34;77.92;95523.84;4990178;28;20256;-70
2023/10/22 04:45:14;;;;;;;7.83;5.40;;;;;;;10.22;78.73;95524.50;4989443;28;20539;-70
2023/10/22 04:47:39;;;;;;;5.50;5.00;;;;;;;10.33;78.26;95528.25;4989935;28;20176;-72
2023/10/22 04:50:05;;;;;;;6.10;4.80;;;;;;;10.29;77.92;95524.09;4989958;28;20177;-67
2023/10/22 04:52:31;;;;;;;5.17;4.67;;;;;;;10.26;78.01;95516.38;4987621;28;20180;-68
2023/10/22 04:54:58;;;;;;;5.53;5.13;;;;;;;10.18;78.33;95527.31;4976943;28;20282;-66
2023/10/22 04:57:24;;;;;;;6.50;4.63;;;;;;;10.11;78.68;95518.09;4970137;28;20420;-68
2023/10/22 04:59:49;;;;;;;5.27;4.77;;;;;;;10.05;78.37;95514.97;4976493;28;20424;-68
2023/10/22 05:02:14;;;;;;;4.70;4.20;;;;;;;10.05;78.74;95523.69;4969443;28;20545;-68
2023/10/22 05:04:40;;;;;;;4.67;4.27;;;;;;;10.17;78.31;95519.53;4972145;28;20184;-68
2023/10/22 05:07:05;;;;;;;5.23;3.80;;;;;;;10.16;77.87;95521.31;4974679;28;20285;-68
2023/10/22 05:09:33;;;;;;;4.53;4.13;;;;;;;10.06;78.14;95521.91;4969251;28;20532;-69
2023/10/22 05:11:59;;;;;;;6.47;4.60;;;;;;;10.05;78.22;95530.72;4977311;28;20169;-68
2023/10/22 05:14:24;;;;;;;5.33;4.80;;;;;;;10.01;78.37;95529.19;4968894;28;20931;-67
2023/10/22 05:16:52;;;;;;;15.20;6.00;;;;;;;9.99;78.88;95520.56;4969651;28;20177;-68
2023/10/22 05:19:17;;;;;;;6.30;4.83;;;;;;;10.03;78.40;95528.16;4969912;28;20552;-68
2023/10/22 05:21:43;;;;;;;8.77;5.53;;;;;;;10.01;78.40;95524.78;4969539;28;20429;-68
2023/10/22 05:24:09;;;;;;;5.50;5.00;;;;;;;9.79;78.65;95524.28;4977144;28;20647;-67
2023/10/22 05:26:35;;;;;;;7.50;4.40;;;;;;;9.90;78.37;95524.56;4981284;28;20251;-67
2023/10/22 05:29:00;;;;;;;13.40;5.13;;;;;;;9.85;78.36;95523.94;4986985;28;20491;-67
2023/10/22 05:31:26;;;;;;;5.90;4.80;;;;;;;9.90;78.16;95540.28;4985467;28;20207;-68
2023/10/22 05:33:51;;;;;;;6.03;4.23;;;;;;;9.93;77.90;95542.72;4983915;28;20270;-68
2023/10/22 05:36:21;;;;;;;5.33;4.80;;;;;;;9.89;78.10;95546.44;4977058;28;20692;-68
2023/10/22 05:38:47;;;;;;;6.00;4.87;;;;;;;9.89;78.16;95546.44;4976629;28;20182;-68
2023/10/22 05:41:26;;;;;;;6.10;4.80;;;;;;;9.92;77.85;95554.09;4970691;28;20925;-67
2023/10/22 05:43:58;;;;;;;8.70;4.67;;;;;;;9.93;77.75;95546.19;4973079;28;20466;-69
2023/10/22 05:46:25;;;;;;;25.20;7.20;;;;;;;9.89;77.59;95547.25;4970959;28;20461;-67
2023/10/22 05:48:50;;;;;;;10.50;4.93;;;;;;;9.82;77.79;95551.16;4974466;28;20467;-68
2023/10/22 05:51:16;;;;;;;7.17;5.27;;;;;;;9.87;77.80;95556.97;4987266;28;20582;-67
2023/10/22 05:53:41;;;;;;;7.30;4.70;;;;;;;9.80;78.07;95557.41;4987900;28;20188;-67
2023/10/22 05:56:06;;;;;;;7.23;5.13;;;;;;;9.65;78.39;95548.59;4989797;28;20201;-67
2023/10/22 05:58:32;;;;;;;6.47;4.77;;;;;;;9.75;78.51;95566.34;4988208;28;20336;-67
2023/10/22 06:00:57;;;;;;;6.53;5.67;;;;;;;9.71;78.54;95571.88;4988027;28;20193;-67
2023/10/22 06:03:23;;;;;;;8.03;6.30;;;;;;;9.72;78.49;95573.53;4987984;28;20196;-67
2023/10/22 06:05:49;;;;;;;6.43;5.67;;;;;;;9.70;78.35;95576.25;4988280;28;20219;-68
2023/10/22 06:08:14;;;;;;;6.53;5.90;;;;;;;9.72;78.61;95581.41;4988024;28;20256;-67
2023/10/22 06:10:41;;;;;;;6.53;5.77;;;;;;;9.86;78.06;95581.50;4987767;28;21237;-67
2023/10/22 06:13:07;;;;;;;6.27;5.67;;;;;;;10.31;76.27;95579.09;4988014;28;20176;-67
2023/10/22 06:15:32;;;;;;;7.50;6.70;;;;;;;11.03;73.47;95593.31;4987709;28;20486;-68
2023/10/22 06:17:57;;;;;;;7.60;6.67;;;;;;;11.49;71.29;95581.88;4988334;28;20914;-67
2023/10/22 06:20:23;;;;;;;6.57;5.97;;;;;;;12.18;69.23;95582.88;4988061;28;20259;-67
2023/10/22 06:22:48;;;;;;;6.73;6.03;;;;;;;12.59;67.05;95592.53;4988185;28;20629;-68
2023/10/22 06:25:14;;;;;;;6.37;5.70;;;;;;;13.07;65.62;95587.63;4987750;28;20750;-67
2023/10/22 06:27:39;;;;;;;7.50;6.07;;;;;;;13.23;64.80;95593.56;4987697;28;20256;-68
2023/10/22 06:30:07;;;;;;;14.83;7.40;;;;;;;13.77;62.85;95595.19;4988636;28;20596;-68
2023/10/22 06:32:32;;;;;;;13.33;8.30;;;;;;;13.47;63.23;95593.72;4987941;28;20187;-69
2023/10/22 06:34:57;;;;;;;11.63;7.97;;;;;;;13.40;63.01;95603.00;4987416;28;20942;-66
2023/10/22 06:37:23;;;;;;;12.23;8.20;;;;;;;13.86;62.28;95601.63;4987736;28;20255;-67
2023/10/22 06:39:51;;;;;;;31.23;9.30;;;;;;;13.55;62.94;95614.28;4987497;28;20188;-67
2023/10/22 06:42:16;;;;;;;12.63;9.00;;;;;;;12.85;65.17;95625.94;4978280;28;20275;-68
2023/10/22 06:44:43;;;;;;;11.30;9.00;;;;;;;12.27;67.19;95629.66;4968087;28;20536;-66
2023/10/22 06:47:09;;;;;;;34.03;13.03;;;;;;;11.93;68.18;95637.03;4971801;28;20271;-69
2023/10/22 06:49:34;;;;;;;21.30;10.80;;;;;;;11.58;69.12;95639.13;4986484;28;20440;-68
2023/10/22 06:52:00;;;;;;;31.67;12.07;;;;;;;11.51;70.35;95638.66;4996436;28;20275;-68
2023/10/22 06:54:27;;;;;;;15.30;11.97;;;;;;;11.56;70.06;95644.47;4987781;28;20200;-66
2023/10/22 06:56:52;;;;;;;16.60;10.70;;;;;;;11.93;69.57;95652.81;4983860;28;20192;-72
2023/10/22 06:59:17;;;;;;;17.40;12.67;;;;;;;12.29;67.87;95652.28;4985736;28;20870;-67
2023/10/22 07:01:43;;;;;;;12.97;10.47;;;;;;;13.29;64.42;95656.41;4983000;28;20188;-67
2023/10/22 07:04:08;;;;;;;13.97;10.93;;;;;;;14.34;60.96;95657.19;4983749;28;20214;-67
2023/10/22 07:06:34;;;;;;;18.63;11.13;;;;;;;15.66;56.92;95652.78;4975031;28;20223;-68
2023/10/22 07:09:00;;;;;;;12.80;9.40;;;;;;;16.51;54.01;95645.31;4983543;28;20522;-69
2023/10/22 07:11:25;;;;;;;12.40;9.90;;;;;;;16.06;54.63;95653.28;4984717;28;20219;-68
2023/10/22 07:13:50;;;;;;;11.50;9.37;;;;;;;16.04;55.04;95654.38;4986456;28;20183;-68
2023/10/22 07:16:16;;;;;;;13.77;9.47;;;;;;;15.96;55.14;95648.81;4987544;28;20196;-68
2023/10/22 07:18:41;;;;;;;10.37;8.67;;;;;;;16.75;53.04;95654.06;4984973;28;20263;-68
2023/10/22 07:21:07;;;;;;;9.90;8.20;;;;;;;18.02;48.81;95651.50;4985325;28;20188;-68
2023/10/22 07:23:32;;;;;;;7.70;6.90;;;;;;;18.83;47.55;95651.59;4985283;28;20180;-68
2023/10/22 07:25:58;;;;;;;8.10;7.03;;;;;;;19.29;46.05;95655.44;4988714;28;20205;-67
2023/10/22 07:28:23;;;;;;;17.87;7.20;;;;;;;19.55;45.20;95652.22;4986095;28;20690;-67
2023/10/22 07:30:49;;;;;;;8.87;5.50;;;;;;;20.52;43.20;95650.19;4985301;28;20185;-67
2023/10/22 07:33:18;;;;;;;6.50;5.83;;;;;;;20.64;42.55;95648.19;4987105;28;20267;-66
2023/10/22 07:35:57;;;;;;;6.73;4.47;;;;;;;21.03;41.61;95649.84;4984834;28;20189;-69
2023/10/22 07:38:24;;;;;;;5.23;4.77;;;;;;;21.30;40.72;95657.78;4984768;28;20760;-67
2023/10/22 07:40:50;;;;;;;6.80;4.97;;;;;;;21.68;40.28;95653.13;4978536;28;20433;-68
2023/10/22 07:43:16;;;;;;;6.00;4.80;;;;;;;21.74;40.49;95665.06;4986948;28;20482;-67
2023/10/22 07:45:41;;;;;;;7.20;4.90;;;;;;;21.51;40.51;95662.84;4986430;28;20993;-67
2023/10/22 07:48:07;;;;;;;4.50;4.10;;;;;;;22.01;39.68;95661.41;4984278;28;20601;-68
2023/10/22 07:50:32;;;;;;;13.27;4.90;;;;;;;22.59;38.37;95659.97;4978131;28;20193;-67
2023/10/22 07:52:58;;;;;;;4.63;4.23;;;;;;;22.51;38.39;95668.81;4983243;28;20243;-68
2023/10/22 07:55:23;;;;;;;4.63;4.20;;;;;;;22.48;38.06;95661.06;4984459;28;20196;-69
2023/10/22 07:57:48;;;;;;;4.97;3.80;;;;;;;22.18;38.93;95676.59;4985846;28;20591;-67
2023/10/22 08:00:14;;;;;;;4.43;4.00;;;;;;;22.31;39.01;95668.16;4966932;28;20189;-68
2023/10/22 08:02:39;;;;;;;4.10;3.70;;;;;;;22.12;39.04;95677.19;4983866;28;20182;-67
2023/10/22 08:05:05;;;;;;;6.20;4.10;;;;;;;21.88;39.74;95671.69;4984958;28;20228;-67
2023/10/22 08:07:31;;;;;;;6.47;3.90;;;;;;;22.05;39.68;95670.81;4983301;28;20564;-69
2023/10/22 08:09:56;;;;;;;5.83;3.30;;;;;;;21.22;40.96;95680.88;4983625;28;20440;-68
2023/10/22 08:12:21;;;;;;;10.07;3.97;;;;;;;20.82;42.47;95687.44;4987603;28;20192;-67
2023/10/22 08:14:47;;;;;;;9.23;3.77;;;;;;;20.68;42.76;95689.59;4996541;28;20200;-67
2023/10/22 08:17:12;;;;;;;5.50;3.43;;;;;;;20.23;43.96;95690.28;4984189;28;20196;-68
2023/10/22 08:19:37;;;;;;;14.43;4.93;;;;;;;20.13;44.08;95684.13;4974144;28;20212;-66
2023/10/22 08:22:04;;;;;;;5.10;2.93;;;;;;;20.29;43.96;95683.50;4991034;28;20220;-67
2023/10/22 08:24:29;;;;;;;4.97;3.17;;;;;;;20.08;44.50;95689.06;4981609;28;20243;-65
2023/10/22 08:26:55;;;;;;;3.80;3.40;;;;;;;20.33;43.79;95695.56;4984379;28;20511;-68
2023/10/22 08:29:21;;;;;;;8.90;3.20;;;;;;;20.46;43.55;95696.09;4988352;28;20196;-69
2023/10/22 08:31:46;;;;;;;6.77;2.90;;;;;;;20.67;43.54;95703.03;4986934;28;20439;-68
2023/10/22 08:34:11;;;;;;;4.07;3.00;;;;;;;20.32;44.26;95725.88;4986568;28;20227;-68
2023/10/22 08:36:37;;;;;;;3.77;2.80;;;;;;;20.61;44.01;95724.97;4986687;28;20186;-68
2023/10/22 08:39:02;;;;;;;10.10;3.70;;;;;;;20.65;44.10;95724.53;4988010;28;20223;-68
2023/10/22 08:41:37;;;;;;;32.37;4.90;;;;;;;20.71;44.10;95733.78;4988858;28;20576;-68
2023/10/22 08:44:03;;;;;;;5.97;3.63;;;;;;;21.01;43.05;95739.84;4981501;28;20180;-68
2023/10/22 08:46:29;;;;;;;6.37;3.10;;;;;;;20.88;43.04;95737.50;4985981;28;20593;-68
2023/10/22 08:48:54;;;;;;;8.33;3.00;;;;;;;20.97;43.24;95730.44;4981359;28;20436;-67
2023/10/22 08:51:22;;;;;;;5.40;3.00;;;;;;;20.98;43.07;95734.81;4988809;28;20249;-67
2023/10/22 08:53:48;;;;;;;5.40;2.60;;;;;;;20.89;43.37;95740.03;4986407;28;21084;-68
2023/10/22 08:56:14;;;;;;;4.00;2.70;;;;;;;20.80;43.33;95743.56;4986642;28;20533;-67
2023/10/22 08:58:40;;;;;;;4.80;2.80;;;;;;;20.70;43.39;95734.78;4987832;28;20191;-68
2023/10/22 09:01:05;;;;;;;3.60;2.30;;;;;;;21.02;43.28;95731.66;4989414;28;20440;-67
2023/10/22 09:03:32;;;;;;;4.60;3.17;;;;;;;20.95;43.48;95735.91;4986744;28;20264;-69
2023/10/22 09:05:57;;;;;;;6.60;4.00;;;;;;;21.29;43.07;95724.66;4977409;28;20266;-69
2023/10/22 09:08:40;;;;;;;22.67;3.90;;;;;;;20.96;43.08;95728.78;4988467;28;20497;-66
2023/10/22 09:11:16;;;;;;;14.53;3.90;;;;;;;20.95;42.98;95727.91;4984871;28;20207;-68
2023/10/22 09:13:42;;;;;;;8.90;2.63;;;;;;;21.07;42.44;95731.22;4986483;28;20462;-67
2023/10/22 09:16:11;;;;;;;5.53;2.83;;;;;;;20.84;43.21;95733.47;4985230;28;20951;-68
2023/10/22 09:18:46;;;;;;;17.73;3.60;;;;;;;21.28;42.42;95728.31;4980888;28;21186;-69
2023/10/22 09:21:11;;;;;;;38.23;6.20;;;;;;;21.02;43.07;95729.00;4986858;28;20898;-68
2023/10/22 09:23:37;;;;;;;16.20;3.37;;;;;;;21.65;42.03;95727.38;4986856;28;20438;-68
2023/10/22 09:26:02;;;;;;;4.07;2.70;;;;;;;21.42;42.32;95724.31;4979510;28;20260;-68
2023/10/22 09:28:29;;;;;;;5.67;2.57;;;;;;;21.34;42.28;95725.88;4984068;28;20313;-68
2023/10/22 09:31:02;;;;;;;3.70;2.40;;;;;;;20.65;42.26;95726.38;4986163;28;20645;-67
2023/10/22 09:33:41;;;;;;;9.63;2.90;;;;;;;20.38;42.95;95735.09;4986003;28;20531;-68
2023/10/22 09:36:08;;;;;;;6.03;2.60;;;;;;;20.54;42.61;95723.84;4986593;28;20883;-67
2023/10/22 09:38:47;;;;;;;3.03;1.97;;;;;;;20.82;42.05;95727.44;4986076;28;20447;-67
2023/10/22 09:41:28;;;;;;;3.80;1.97;;;;;;;21.00;41.75;95736.34;4988736;28;20443;-72
2023/10/22 09:43:55;;;;;;;4.23;2.10;;;;;;;20.58;42.48;95730.63;4984018;28;20490;-68
2023/10/22 09:46:24;;;;;;;3.60;1.73;;;;;;;20.23;43.64;95742.72;4985802;28;20502;-69
2023/10/22 09:48:50;;;;;;;7.70;2.07;;;;;;;19.95;43.05;95739.09;4980705;28;20498;-68
2023/10/22 09:51:17;;;;;;;13.23;2.97;;;;;;;20.19;48.82;95742.16;4985314;28;20926;-69
2023/10/22 09:53:46;;;;;;;6.00;2.47;;;;;;;20.46;46.56;95736.06;4981413;28;20184;-68
2023/10/22 09:56:17;;;;;;;18.47;3.10;;;;;;;20.54;44.01;95737.19;4989941;28;20428;-68
2023/10/22 09:58:43;;;;;;;12.40;2.73;;;;;;;20.37;44.25;95730.78;4989394;28;20415;-68
2023/10/22 10:01:13;;;;;;;15.50;4.17;;;;;;;20.28;42.13;95729.81;4983214;28;20432;-68
2023/10/22 10:03:40;;;;;;;3.77;2.10;;;;;;;20.09;42.34;95730.69;4987040;28;20444;-68
2023/10/22 10:06:07;;;;;;;3.13;1.37;;;;;;;20.21;42.13;95729.53;4983880;28;20492;-66
2023/10/22 10:08:36;;;;;;;6.80;1.57;;;;;;;20.03;42.88;95728.56;4986338;28;20486;-69
2023/10/22 10:11:02;;;;;;;18.93;3.30;;;;;;;20.04;42.80;95727.59;4971015;28;20983;-67
2023/10/22 10:13:28;;;;;;;14.17;2.27;;;;;;;20.00;43.03;95735.03;4986418;28;20454;-68
2023/10/22 10:16:04;;;;;;;6.33;2.63;;;;;;;20.05;42.44;95723.94;4992803;28;20448;-68
2023/10/22 10:19:02;;;;;;;3.47;1.33;;;;;;;20.05;42.28;95731.94;4990074;28;20191;-70
2023/10/22 10:21:39;;;;;;;3.17;1.60;;;;;;;19.80;42.36;95731.53;4987548;28;20436;-66
2023/10/22 10:24:25;;;;;;;3.07;1.50;;;;;;;19.98;42.40;95734.31;4988139;28;20807;-68
2023/10/22 10:27:12;;;;;;;2.80;2.00;;;;;;;20.06;42.31;95738.97;4968029;28;20503;-66
2023/10/22 10:29:39;;;;;;;6.07;1.20;;;;;;;20.00;41.96;95735.03;4967932;28;20421;-67
2023/10/22 10:32:13;;;;;;;4.40;1.27;;;;;;;19.95;42.28;95733.78;4971804;28;20419;-67
2023/10/22 10:34:40;;;;;;;6.10;1.67;;;;;;;20.00;41.98;95740.34;4987288;28;20463;-69
2023/10/22 10:37:08;;;;;;;4.07;1.53;;;;;;;20.09;41.79;95736.00;4987022;28;20440;-68
2023/10/22 10:39:40;;;;;;;10.20;1.53;;;;;;;20.12;41.40;95741.03;4987633;28;20455;-67
2023/10/22 10:42:07;;;;;;;17.03;2.60;;;;;;;20.08;41.57;95739.66;4986631;28;20440;-67
2023/10/22 10:44:58;;;;;;;21.43;3.70;;;;;;;20.12;41.96;95734.88;4986361;28;20432;-67
2023/10/22 10:47:27;;;;;;;15.40;3.23;;;;;;;20.02;42.10;95738.38;4986813;28;20942;-68
2023/10/22 10:50:05;;;;;;;4.07;1.87;;;;;;;20.14;41.71;95736.41;4988842;28;20459;-68
2023/10/22 10:52:39;;;;;;;3.13;1.27;;;;;;;20.17;41.90;95728.13;4986983;28;20490;-67
2023/10/22 10:55:09;;;;;;;2.60;1.37;;;;;;;19.98;42.03;95738.81;4986728;28;20427;-67
2023/10/22 10:57:39;;;;;;;3.57;1.27;;;;;;;20.13;41.94;95731.25;4986586;28;20475;-67
2023/10/22 11:00:09;;;;;;;4.17;1.40;;;;;;;20.25;41.88;95727.44;4981458;28;20493;-68
2023/10/22 11:02:45;;;;;;;8.40;1.77;;;;;;;20.32;41.54;95725.03;4987245;28;20502;-68
2023/10/22 11:05:11;;;;;;;2.90;1.13;;;;;;;20.13;41.91;95717.94;4986829;28;20511;-67
2023/10/22 11:07:37;;;;;;;4.03;1.60;;;;;;;20.17;41.75;95721.97;4987769;28;21215;-67
2023/10/22 11:10:14;;;;;;;6.90;1.63;;;;;;;20.06;41.61;95720.31;4986416;28;20180;-69
2023/10/22 11:12:41;;;;;;;4.27;1.43;;;;;;;20.30;41.43;95722.50;4986704;28;20824;-68
2023/10/22 11:15:10;;;;;;;15.93;2.70;;;;;;;20.24;41.24;95710.59;4986603;28;20468;-67
2023/10/22 11:17:38;;;;;;;16.20;2.63;;;;;;;20.39;41.66;95720.81;4987777;28;20463;-67
2023/10/22 11:20:04;;;;;;;6.53;1.90;;;;;;;20.49;41.44;95721.63;4987177;28;21029;-67
2023/10/22 11:22:31;;;;;;;4.17;1.60;;;;;;;20.37;41.29;95717.44;4987246;28;20551;-67
2023/10/22 11:25:01;;;;;;;1.83;1.03;;;;;;;20.44;41.03;95715.88;4986494;28;20806;-69
2023/10/22 11:27:27;;;;;;;8.93;1.37;;;;;;;20.25;41.27;95720.28;4987587;28;20936;-68
2023/10/22 11:29:53;;;;;;;6.03;1.33;;;;;;;20.46;40.79;95701.44;4986881;28;20442;-68
2023/10/22 11:32:20;;;;;;;4.40;1.33;;;;;;;20.56;40.81;95701.44;4986815;28;20495;-68
2023/10/22 11:34:50;;;;;;;1.90;1.07;;;;;;;20.43;40.25;95709.72;4986753;28;20232;-67
2023/10/22 11:37:36;;;;;;;3.57;1.30;;;;;;;20.22;40.19;95701.06;4987668;28;20438;-69
2023/10/22 11:40:31;;;;;;;2.80;1.37;;;;;;;20.05;40.71;95703.47;4980588;28;20439;-68
2023/10/22 11:43:03;;;;;;;5.43;1.43;;;;;;;19.91;40.94;95705.75;4980402;28;20435;-68
2023/10/22 11:45:35;;;;;;;1.70;1.03;;;;;;;20.06;38.88;95707.84;4986924;28;20558;-66
2023/10/22 11:48:15;;;;;;;2.00;1.13;;;;;;;20.01;38.22;95710.09;4990831;28;20418;-68
2023/10/22 11:50:45;;;;;;;2.70;1.27;;;;;;;20.05;38.81;95714.13;4991164;28;20432;-70
2023/10/22 11:53:10;;;;;;;5.80;1.87;;;;;;;19.69;39.66;95714.88;4989488;28;20507;-68
2023/10/22 11:55:36;;;;;;;9.50;2.10;;;;;;;19.43;40.53;95713.56;4990135;28;21338;-68
2023/10/22 11:58:02;;;;;;;16.57;2.70;;;;;;;19.73;40.73;95717.13;4990068;28;20188;-68
2023/10/22 12:00:28;;;;;;;6.17;1.97;;;;;;;19.74;41.54;95717.94;4990420;28;20584;-67
2023/10/22 12:02:53;;;;;;;3.73;1.30;;;;;;;19.93;41.43;95717.94;4990534;28;20423;-68
2023/10/22 12:05:20;;;;;;;4.47;1.60;;;;;;;20.01;41.29;95718.09;4990005;28;20197;-66
2023/10/22 12:07:45;;;;;;;2.97;1.43;;;;;;;20.09;41.20;95723.53;4990481;28;20939;-68